Terminal Aerodrome Forecast
Issued by NWS

Home | Current Version | Previous Version | Text Only | Print | Product List | Glossary On
Versions: 1 2 3 4 5 6 7 8 9 10 11 12
915
FTUS45 KVEF 312320
TAFDAG
TAF
KDAG 312320Z 0100/0124 07007KT P6SM FEW150
     FM010300 25012KT P6SM SKC
     FM011600 30008KT P6SM SKC
     FM012000 03006KT P6SM SKC=

USA.gov is the U.S. government's official web portal to all federal, state and local government web resources and services.